createdAt,value
2019-06-26T00:02:27.672Z,48.50
2019-06-26T00:06:46.921Z,48.70
2019-06-26T00:11:05.512Z,49.00
2019-06-26T00:15:24.215Z,48.90
2019-06-26T00:19:42.603Z,49.10
2019-06-26T00:24:01.256Z,49.10
2019-06-26T00:28:19.594Z,49.20
2019-06-26T00:32:38.107Z,49.40
2019-06-26T00:36:56.426Z,49.40
2019-06-26T00:41:15.115Z,49.40
2019-06-26T00:45:33.840Z,49.70
2019-06-26T00:49:52.298Z,50.10
2019-06-26T00:54:10.538Z,49.80
2019-06-26T00:58:28.849Z,49.90
2019-06-26T01:02:47.115Z,49.80
2019-06-26T01:07:06.205Z,50.10
2019-06-26T01:11:24.853Z,50.60
2019-06-26T01:15:43.888Z,50.50
2019-06-26T01:20:02.819Z,50.80
2019-06-26T01:24:22.014Z,50.80
2019-06-26T01:28:40.651Z,50.90
2019-06-26T01:32:59.582Z,51.00
2019-06-26T01:37:18.325Z,50.90
2019-06-26T01:41:37.615Z,50.80
2019-06-26T01:45:56.715Z,51.10
2019-06-26T01:50:16.779Z,51.10
2019-06-26T01:54:35.115Z,51.50
2019-06-26T01:58:53.770Z,51.30
2019-06-26T02:03:12.339Z,51.40
2019-06-26T02:07:31.225Z,51.50
2019-06-26T02:11:50.010Z,51.60
2019-06-26T02:16:08.676Z,52.30
2019-06-26T02:20:27.513Z,52.10
2019-06-26T02:24:45.970Z,52.70
2019-06-26T02:29:04.948Z,53.20
2019-06-26T02:33:23.368Z,52.90
2019-06-26T02:37:41.635Z,53.20
2019-06-26T02:46:18.159Z,52.90
2019-06-26T02:50:36.434Z,53.00
2019-06-26T02:54:55.056Z,52.80
2019-06-26T02:59:13.309Z,53.00
2019-06-26T03:03:32.039Z,53.30
2019-06-26T03:07:50.931Z,53.40
2019-06-26T03:12:09.192Z,52.60
2019-06-26T03:16:27.927Z,53.30
2019-06-26T03:20:51.145Z,53.40
2019-06-26T03:25:09.971Z,53.20
2019-06-26T03:29:28.756Z,53.60
2019-06-26T03:33:48.781Z,53.50
2019-06-26T03:38:07.273Z,53.60
2019-06-26T03:42:25.512Z,53.60
2019-06-26T03:46:44.117Z,53.50
2019-06-26T03:51:02.385Z,53.90
2019-06-26T03:55:20.771Z,53.90
2019-06-26T03:59:39.105Z,54.10
2019-06-26T04:03:57.757Z,54.20
2019-06-26T04:08:16.009Z,54.30
2019-06-26T04:12:34.801Z,54.50
2019-06-26T04:16:53.834Z,54.70
2019-06-26T04:21:12.367Z,54.90
2019-06-26T04:25:31.068Z,55.50
2019-06-26T04:29:49.826Z,55.40
2019-06-26T04:34:09.329Z,55.60
2019-06-26T04:38:27.751Z,55.30
2019-06-26T04:42:45.994Z,55.20
2019-06-26T04:47:04.597Z,55.20
2019-06-26T04:51:23.567Z,54.80
2019-06-26T05:00:00.494Z,54.80
2019-06-26T05:04:19.904Z,54.50
2019-06-26T05:08:38.235Z,54.20
2019-06-26T05:12:56.600Z,54.00
2019-06-26T05:17:14.858Z,53.60
2019-06-26T05:21:33.724Z,53.10
2019-06-26T05:25:51.974Z,52.70
2019-06-26T05:30:12.586Z,52.30
2019-06-26T05:34:31.158Z,51.80
2019-06-26T05:38:49.995Z,51.60
2019-06-26T05:43:08.213Z,51.10
2019-06-26T05:47:26.557Z,49.80
2019-06-26T05:51:45.323Z,48.20
2019-06-26T05:56:03.609Z,49.10
2019-06-26T06:00:22.169Z,49.50
2019-06-26T06:04:40.798Z,50.00
2019-06-26T06:08:59.260Z,48.00
2019-06-26T06:13:18.884Z,48.20
2019-06-26T06:17:37.315Z,47.80
2019-06-26T06:21:55.859Z,47.30
2019-06-26T06:26:14.039Z,48.00
2019-06-26T06:30:32.688Z,46.00
2019-06-26T06:35:01.386Z,45.90
2019-06-26T06:39:20.120Z,45.20
2019-06-26T06:43:38.382Z,45.00
2019-06-26T06:47:56.688Z,43.70
2019-06-26T06:52:16.784Z,45.00
2019-06-26T06:56:34.758Z,43.40
2019-06-26T07:00:53.099Z,43.10
2019-06-26T07:05:11.588Z,42.50
2019-06-26T07:09:30.903Z,43.30
2019-06-26T07:13:50.948Z,41.60
2019-06-26T07:18:09.231Z,40.60
2019-06-26T07:22:27.891Z,40.20
2019-06-26T07:26:46.308Z,40.90
2019-06-26T07:31:05.000Z,39.80
2019-06-26T07:35:23.459Z,38.90
2019-06-26T07:39:42.155Z,38.20
2019-06-26T07:44:00.585Z,38.40
2019-06-26T07:48:19.641Z,38.10
2019-06-26T07:52:38.264Z,35.90
2019-06-26T07:56:56.538Z,36.80
2019-06-26T08:01:14.644Z,36.80
2019-06-26T08:05:33.100Z,36.40
2019-06-26T08:09:51.238Z,36.00
2019-06-26T08:14:09.347Z,35.70
2019-06-26T08:18:27.694Z,35.40
2019-06-26T08:22:46.156Z,35.00
2019-06-26T08:27:04.680Z,35.10
2019-06-26T08:31:22.955Z,34.30
2019-06-26T08:35:41.173Z,33.40
2019-06-26T08:39:59.937Z,32.00
2019-06-26T08:44:18.514Z,33.60
2019-06-26T08:48:40.021Z,33.10
2019-06-26T08:52:57.586Z,32.00
2019-06-26T08:57:16.264Z,32.30
2019-06-26T09:01:34.756Z,32.80
2019-06-26T09:05:53.289Z,32.50
2019-06-26T09:10:12.166Z,32.10
2019-06-26T09:14:30.279Z,31.80
2019-06-26T09:18:48.519Z,31.30
2019-06-26T09:23:07.159Z,31.40
2019-06-26T09:27:25.566Z,31.10
2019-06-26T09:31:44.006Z,30.70
2019-06-26T09:36:06.727Z,30.40
2019-06-26T09:40:23.315Z,29.50
2019-06-26T09:44:41.816Z,30.40
2019-06-26T09:49:01.865Z,29.90
2019-06-26T09:53:20.438Z,29.00
2019-06-26T09:57:39.395Z,29.70
2019-06-26T10:01:57.854Z,29.80
2019-06-26T10:06:16.901Z,29.90
2019-06-26T10:10:35.048Z,28.90
2019-06-26T10:14:53.517Z,29.20
2019-06-26T10:19:11.835Z,29.40
2019-06-26T10:23:31.648Z,29.60
2019-06-26T10:27:50.153Z,29.80
2019-06-26T10:32:08.674Z,29.80
2019-06-26T10:36:27.295Z,29.80
2019-06-26T10:40:45.701Z,29.40
2019-06-26T10:45:03.950Z,29.20
2019-06-26T10:49:27.344Z,29.00
2019-06-26T10:53:43.086Z,29.00
2019-06-26T10:58:02.442Z,29.00
2019-06-26T11:02:21.371Z,29.20
2019-06-26T11:06:39.549Z,29.10
2019-06-26T11:10:58.658Z,28.90
2019-06-26T11:15:17.026Z,28.20
2019-06-26T11:19:43.974Z,28.60
2019-06-26T11:23:56.598Z,28.40
2019-06-26T11:28:15.106Z,28.50
2019-06-26T11:32:33.396Z,28.10
2019-06-26T11:37:03.209Z,28.00
2019-06-26T11:41:12.840Z,28.30
2019-06-26T11:45:31.105Z,27.90
2019-06-26T11:49:59.329Z,27.50
2019-06-26T11:54:09.300Z,28.10
2019-06-26T11:58:27.652Z,28.00
2019-06-26T12:02:46.279Z,27.00
2019-06-26T12:07:04.964Z,27.60
2019-06-26T12:11:23.170Z,26.90
2019-06-26T12:15:41.543Z,27.80
2019-06-26T12:20:13.683Z,26.70
2019-06-26T12:24:20.476Z,27.40
2019-06-26T12:28:38.960Z,27.40
2019-06-26T12:33:03.326Z,27.30
2019-06-26T12:37:17.414Z,27.60
2019-06-26T12:41:35.778Z,27.70
2019-06-26T12:45:53.950Z,27.80
2019-06-26T12:50:14.815Z,28.00
2019-06-26T12:54:32.949Z,28.00
2019-06-26T12:58:51.097Z,27.80
2019-06-26T13:03:09.746Z,27.80
2019-06-26T13:07:28.162Z,27.60
2019-06-26T13:11:46.420Z,27.50
2019-06-26T13:16:07.410Z,27.30
2019-06-26T13:20:26.608Z,27.10
2019-06-26T13:24:45.287Z,25.70
2019-06-26T13:29:04.404Z,26.90
2019-06-26T13:33:23.135Z,26.40
2019-06-26T13:37:43.525Z,26.90
2019-06-26T13:42:03.189Z,27.20
2019-06-26T13:46:21.626Z,26.70
2019-06-26T13:50:40.829Z,26.90
2019-06-26T13:54:59.077Z,26.20
2019-06-26T13:59:21.716Z,26.70
2019-06-26T14:03:40.370Z,26.90
2019-06-26T14:07:59.199Z,27.00
2019-06-26T14:12:23.953Z,27.00
2019-06-26T14:16:44.038Z,27.20
2019-06-26T14:21:02.337Z,27.30
2019-06-26T14:25:20.669Z,27.40
2019-06-26T14:29:38.949Z,27.50
2019-06-26T14:34:02.259Z,27.50
2019-06-26T14:38:23.975Z,27.90
2019-06-26T14:42:43.483Z,28.20
2019-06-26T14:47:04.039Z,28.40
2019-06-26T14:51:23.568Z,28.70
2019-06-26T14:55:44.353Z,28.70
2019-06-26T15:00:05.195Z,28.80
2019-06-26T15:04:25.390Z,29.40
2019-06-26T15:08:43.998Z,29.30
2019-06-26T15:13:04.632Z,29.50
2019-06-26T15:17:25.161Z,29.30
2019-06-26T15:21:57.916Z,29.70
2019-06-26T15:26:05.321Z,29.80
2019-06-26T15:30:23.917Z,29.90
2019-06-26T15:34:42.165Z,30.00
2019-06-26T15:39:00.398Z,29.70
2019-06-26T15:43:20.548Z,30.10
2019-06-26T15:47:39.170Z,29.70
2019-06-26T15:52:13.799Z,30.20
2019-06-26T15:56:18.463Z,30.40
2019-06-26T16:00:37.344Z,30.10
2019-06-26T16:04:56.125Z,30.60
2019-06-26T16:09:14.433Z,30.80
2019-06-26T16:13:35.456Z,30.90
2019-06-26T16:18:04.688Z,30.40
2019-06-26T16:26:42.804Z,30.60
2019-06-26T16:31:01.345Z,30.70
2019-06-26T16:35:20.763Z,31.10
2019-06-26T16:39:39.525Z,30.60
2019-06-26T16:43:57.873Z,31.30
2019-06-26T16:48:21.250Z,31.00
2019-06-26T16:52:49.153Z,31.50
2019-06-26T16:56:59.988Z,31.60
2019-06-26T17:01:18.993Z,31.20
2019-06-26T17:05:38.572Z,31.30
2019-06-26T17:09:57.786Z,31.40
2019-06-26T17:14:17.415Z,31.60
2019-06-26T17:18:35.802Z,31.50
2019-06-26T17:23:05.266Z,32.00
2019-06-26T17:27:14.067Z,32.10
2019-06-26T17:31:32.502Z,32.20
2019-06-26T17:35:51.196Z,32.10
2019-06-26T17:40:10.643Z,32.10
2019-06-26T17:44:28.987Z,32.20
2019-06-26T17:48:47.346Z,32.30
2019-06-26T17:53:20.665Z,32.20
2019-06-26T17:57:25.843Z,32.30
2019-06-26T18:01:44.240Z,32.30
2019-06-26T18:06:02.420Z,32.60
2019-06-26T18:10:22.427Z,32.60
2019-06-26T18:14:43.346Z,32.80
2019-06-26T18:19:01.542Z,32.80
2019-06-26T18:23:19.692Z,33.00
2019-06-26T18:27:37.953Z,33.20
2019-06-26T18:31:56.185Z,33.40
2019-06-26T18:36:14.823Z,33.90
2019-06-26T18:40:33.392Z,34.20
2019-06-26T18:44:52.480Z,34.60
2019-06-26T18:49:10.956Z,35.00
2019-06-26T18:53:29.266Z,35.30
2019-06-26T18:57:47.522Z,35.50
2019-06-26T19:02:08.511Z,35.80
2019-06-26T19:06:26.562Z,36.00
2019-06-26T19:10:45.621Z,35.90
2019-06-26T19:15:04.403Z,36.50
2019-06-26T19:19:23.100Z,36.50
2019-06-26T19:23:41.866Z,36.70
2019-06-26T19:28:00.182Z,36.90
2019-06-26T19:32:18.975Z,37.20
2019-06-26T19:36:49.534Z,37.40
2019-06-26T19:41:00.271Z,37.70
2019-06-26T19:45:19.742Z,37.90
2019-06-26T19:49:41.329Z,38.00
2019-06-26T19:54:03.373Z,38.40
2019-06-26T19:58:22.008Z,38.60
2019-06-26T20:02:40.350Z,38.70
2019-06-26T20:06:58.774Z,39.00
2019-06-26T20:11:18.444Z,39.30
2019-06-26T20:15:37.657Z,39.50
2019-06-26T20:19:56.287Z,39.80
2019-06-26T20:24:14.819Z,40.00
2019-06-26T20:28:33.658Z,40.20
2019-06-26T20:32:52.315Z,40.50
2019-06-26T20:37:10.744Z,40.70
2019-06-26T20:41:29.102Z,40.90
2019-06-26T20:45:48.402Z,41.10
2019-06-26T20:50:07.141Z,41.30
2019-06-26T20:54:25.440Z,41.50
2019-06-26T20:58:43.587Z,41.80
2019-06-26T21:03:01.934Z,41.80
2019-06-26T21:07:20.384Z,41.90
2019-06-26T21:11:38.606Z,42.10
2019-06-26T21:15:57.023Z,42.20
2019-06-26T21:20:15.379Z,42.40
2019-06-26T21:24:36.226Z,42.50
2019-06-26T21:28:54.924Z,42.90
2019-06-26T21:33:13.202Z,42.90
2019-06-26T21:37:31.828Z,43.20
2019-06-26T21:41:50.010Z,43.40
2019-06-26T21:46:08.153Z,43.60
2019-06-26T21:50:29.137Z,43.80
2019-06-26T21:54:46.906Z,44.00
2019-06-26T21:59:23.456Z,44.10
2019-06-26T22:04:00.035Z,44.20
2019-06-26T22:08:30.101Z,44.30
2019-06-26T22:12:51.220Z,44.50
2019-06-26T22:17:10.953Z,44.70
2019-06-26T22:21:30.610Z,44.90
2019-06-26T22:25:51.427Z,45.00
2019-06-26T22:30:11.782Z,45.20
2019-06-26T22:34:31.041Z,45.40
2019-06-26T22:38:49.549Z,45.50
2019-06-26T22:43:07.946Z,45.90
2019-06-26T22:47:26.778Z,45.70
2019-06-26T22:51:45.331Z,46.00
2019-06-26T22:56:07.941Z,46.10
2019-06-26T23:00:24.893Z,46.30
2019-06-26T23:04:43.681Z,46.10
2019-06-26T23:09:02.137Z,46.30
2019-06-26T23:13:21.795Z,46.70
2019-06-26T23:17:40.586Z,46.70
2019-06-26T23:21:58.841Z,46.60
2019-06-26T23:26:24.000Z,47.10
2019-06-26T23:30:37.437Z,47.10
2019-06-26T23:34:56.134Z,47.10
2019-06-26T23:39:14.527Z,47.20
2019-06-26T23:43:33.478Z,47.50
2019-06-26T23:47:52.189Z,47.70
2019-06-26T23:52:10.510Z,47.70
2019-06-26T23:56:40.117Z,47.40
